createdAt,value
2018-11-14T00:00:09.736Z,102351.87
2018-11-14T00:02:38.453Z,102347.68
2018-11-14T00:05:07.481Z,102350.34
2018-11-14T00:07:36.379Z,102344.77
2018-11-14T00:10:20.358Z,102346.93
2018-11-14T00:12:48.728Z,102341.78
2018-11-14T00:15:19.663Z,102339.92
2018-11-14T00:17:48.996Z,102352.45
2018-11-14T00:20:17.699Z,102350.70
2018-11-14T00:22:47.459Z,102362.42
2018-11-14T00:25:16.183Z,102359.01
2018-11-14T00:27:46.230Z,102357.34
2018-11-14T00:30:19.878Z,102361.69
2018-11-14T00:32:48.533Z,102363.91
2018-11-14T00:35:17.232Z,102376.98
2018-11-14T00:37:46.331Z,102384.37
2018-11-14T00:40:16.044Z,102383.12
2018-11-14T00:42:45.343Z,102380.09
2018-11-14T00:45:21.641Z,102381.88
2018-11-14T00:47:50.878Z,102381.02
2018-11-14T00:50:19.998Z,102391.42
2018-11-14T00:52:48.985Z,102391.42
2018-11-14T00:55:21.671Z,102395.87
2018-11-14T00:57:51.370Z,102401.16
2018-11-14T01:00:22.360Z,102398.61
2018-11-14T01:02:51.059Z,102399.59
2018-11-14T01:05:19.990Z,102403.55
2018-11-14T01:07:48.757Z,102400.58
2018-11-14T01:10:18.898Z,102403.67
2018-11-14T01:12:48.419Z,102394.56
2018-11-14T01:15:18.369Z,102399.27
2018-11-14T01:17:47.215Z,102390.22
2018-11-14T01:20:17.234Z,102397.61
2018-11-14T01:22:46.336Z,102398.15
2018-11-14T01:25:15.924Z,102399.84
2018-11-14T01:27:45.040Z,102405.52
2018-11-14T01:30:17.275Z,102403.74
2018-11-14T01:32:46.814Z,102400.02
2018-11-14T01:35:16.033Z,102405.27
2018-11-14T01:37:44.732Z,102403.11
2018-11-14T01:40:15.387Z,102410.52
2018-11-14T01:42:45.324Z,102399.48
2018-11-14T01:45:14.043Z,102398.25
2018-11-14T01:47:42.796Z,102412.06
2018-11-14T01:50:11.788Z,102413.03
2018-11-14T01:52:40.551Z,102410.13
2018-11-14T01:55:10.801Z,102402.53
2018-11-14T01:57:39.501Z,102397.88
2018-11-14T02:00:11.035Z,102398.27
2018-11-14T02:02:39.904Z,102399.17
2018-11-14T02:05:09.172Z,102396.20
2018-11-14T02:07:37.891Z,102393.33
2018-11-14T02:10:09.364Z,102393.70
2018-11-14T02:12:38.783Z,102389.04
2018-11-14T02:15:09.180Z,102391.33
2018-11-14T02:17:38.185Z,102385.63
2018-11-14T02:20:07.331Z,102392.08
2018-11-14T02:22:36.084Z,102398.20
2018-11-14T02:25:05.144Z,102393.92
2018-11-14T02:27:33.854Z,102392.36
2018-11-14T02:30:02.562Z,102391.66
2018-11-14T02:32:31.275Z,102388.23
2018-11-14T02:35:00.093Z,102382.54
2018-11-14T02:37:28.811Z,102378.98
2018-11-14T02:39:57.511Z,102375.95
2018-11-14T02:42:26.248Z,102377.36
2018-11-14T02:44:54.959Z,102365.22
2018-11-14T02:47:23.661Z,102361.00
2018-11-14T02:49:52.351Z,102358.89
2018-11-14T02:52:21.088Z,102363.23
2018-11-14T02:54:49.772Z,102361.21
2018-11-14T02:57:18.469Z,102365.48
2018-11-14T02:59:47.685Z,102361.09
2018-11-14T03:02:16.391Z,102358.66
2018-11-14T03:04:45.112Z,102361.26
2018-11-14T03:07:13.842Z,102363.44
2018-11-14T03:09:42.536Z,102356.94
2018-11-14T03:12:11.242Z,102354.92
2018-11-14T03:14:39.977Z,102353.63
2018-11-14T03:17:08.713Z,102350.76
2018-11-14T03:19:37.419Z,102357.30
2018-11-14T03:22:06.144Z,102357.34
2018-11-14T03:24:35.036Z,102358.27
2018-11-14T03:27:03.808Z,102353.52
2018-11-14T03:29:32.515Z,102354.09
2018-11-14T03:32:01.226Z,102351.07
2018-11-14T03:34:29.939Z,102348.08
2018-11-14T03:36:58.634Z,102340.40
2018-11-14T03:39:27.435Z,102349.88
2018-11-14T03:41:56.132Z,102345.64
2018-11-14T03:44:24.851Z,102345.59
2018-11-14T03:46:53.568Z,102336.06
2018-11-14T03:49:22.269Z,102331.30
2018-11-14T03:51:50.970Z,102331.74
2018-11-14T03:54:19.991Z,102337.84
2018-11-14T03:56:48.694Z,102340.45
2018-11-14T03:59:17.394Z,102340.55
2018-11-14T04:01:46.108Z,102338.89
2018-11-14T04:04:14.818Z,102337.59
2018-11-14T04:06:43.592Z,102330.66
2018-11-14T04:09:13.337Z,102334.55
2018-11-14T04:11:42.344Z,102330.66
2018-11-14T04:14:11.100Z,102332.39
2018-11-14T04:16:39.820Z,102329.31
2018-11-14T04:19:08.691Z,102333.75
2018-11-14T04:21:37.556Z,102337.36
2018-11-14T04:24:06.272Z,102332.61
2018-11-14T04:26:34.974Z,102329.57
2018-11-14T04:29:05.147Z,102329.14
2018-11-14T04:31:33.865Z,102332.13
2018-11-14T04:34:02.584Z,102330.88
2018-11-14T04:36:31.284Z,102334.48
2018-11-14T04:38:59.992Z,102333.70
2018-11-14T04:41:28.716Z,102330.30
2018-11-14T04:43:57.421Z,102329.83
2018-11-14T04:46:26.129Z,102317.80
2018-11-14T04:48:54.812Z,102321.22
2018-11-14T04:51:23.532Z,102319.53
2018-11-14T04:53:52.736Z,102317.80
2018-11-14T04:56:21.449Z,102314.34
2018-11-14T04:58:50.288Z,102316.55
2018-11-14T05:01:19.006Z,102308.39
2018-11-14T05:03:47.714Z,102307.62
2018-11-14T05:06:16.428Z,102314.11
2018-11-14T05:08:45.153Z,102304.06
2018-11-14T05:11:14.016Z,102305.84
2018-11-14T05:13:42.712Z,102304.97
2018-11-14T05:16:11.494Z,102308.37
2018-11-14T05:18:40.377Z,102306.74
2018-11-14T05:21:09.075Z,102316.22
2018-11-14T05:23:38.072Z,102306.66
2018-11-14T05:26:06.780Z,102309.67
2018-11-14T05:28:35.486Z,102310.02
2018-11-14T05:31:05.108Z,102311.32
2018-11-14T05:33:33.812Z,102317.81
2018-11-14T05:36:02.504Z,102317.38
2018-11-14T05:38:31.212Z,102319.59
2018-11-14T05:40:59.920Z,102326.64
2018-11-14T05:43:28.792Z,102322.36
2018-11-14T05:45:57.505Z,102325.02
2018-11-14T05:48:26.205Z,102330.73
2018-11-14T05:50:54.911Z,102330.44
2018-11-14T05:53:23.660Z,102333.95
2018-11-14T05:55:52.391Z,102337.08
2018-11-14T05:58:21.307Z,102335.88
2018-11-14T06:00:50.201Z,102335.11
2018-11-14T06:03:18.926Z,102326.52
2018-11-14T06:05:47.623Z,102329.16
2018-11-14T06:08:16.392Z,102329.20
2018-11-14T06:10:45.369Z,102328.37
2018-11-14T06:13:14.088Z,102337.06
2018-11-14T06:15:43.061Z,102331.89
2018-11-14T06:18:12.041Z,102337.55
2018-11-14T06:20:41.036Z,102336.73
2018-11-14T06:23:09.751Z,102336.39
2018-11-14T06:25:39.179Z,102334.75
2018-11-14T06:28:10.265Z,102342.15
2018-11-14T06:30:40.146Z,102337.88
2018-11-14T06:33:09.911Z,102349.16
2018-11-14T06:35:38.605Z,102350.88
2018-11-14T06:38:07.312Z,102354.00
2018-11-14T06:40:36.324Z,102363.08
2018-11-14T06:43:05.125Z,102362.26
2018-11-14T06:45:34.500Z,102368.27
2018-11-14T06:48:03.680Z,102372.59
2018-11-14T06:50:32.401Z,102382.54
2018-11-14T06:53:02.552Z,102376.05
2018-11-14T06:55:31.505Z,102375.23
2018-11-14T06:58:00.231Z,102378.30
2018-11-14T07:00:31.944Z,102375.71
2018-11-14T07:03:01.605Z,102371.42
2018-11-14T07:05:30.324Z,102369.69
2018-11-14T07:07:59.122Z,102375.80
2018-11-14T07:10:30.268Z,102378.42
2018-11-14T07:13:06.415Z,102371.12
2018-11-14T07:15:35.683Z,102375.02
2018-11-14T07:18:05.012Z,102379.80
2018-11-14T07:20:35.256Z,102388.45
2018-11-14T07:23:05.057Z,102386.69
2018-11-14T07:25:33.760Z,102389.75
2018-11-14T07:28:02.488Z,102399.22
2018-11-14T07:30:31.729Z,102399.65
2018-11-14T07:33:01.704Z,102396.58
2018-11-14T07:35:30.420Z,102395.72
2018-11-14T07:38:34.740Z,102399.95
2018-11-14T07:41:04.718Z,102395.59
2018-11-14T07:43:34.246Z,102387.30
2018-11-14T07:46:02.928Z,102400.22
2018-11-14T07:48:31.874Z,102399.74
2018-11-14T07:51:00.671Z,102405.75
2018-11-14T07:53:29.664Z,102397.02
2018-11-14T07:55:58.376Z,102400.35
2018-11-14T07:58:27.071Z,102398.53
2018-11-14T08:00:56.078Z,102399.78
2018-11-14T08:03:25.183Z,102412.16
2018-11-14T08:05:54.280Z,102408.17
2018-11-14T08:08:23.068Z,102402.02
2018-11-14T08:10:52.063Z,102404.09
2018-11-14T08:13:21.968Z,102401.79
2018-11-14T08:15:52.196Z,102404.64
2018-11-14T08:18:20.925Z,102406.66
2018-11-14T08:20:49.771Z,102417.72
2018-11-14T08:23:18.664Z,102421.95
2018-11-14T08:25:47.406Z,102420.54
2018-11-14T08:28:16.152Z,102421.70
2018-11-14T08:30:45.478Z,102414.67
2018-11-14T08:33:14.091Z,102413.31
2018-11-14T08:35:42.826Z,102414.04
2018-11-14T08:38:11.569Z,102411.76
2018-11-14T08:40:40.287Z,102403.00
2018-11-14T08:43:09.132Z,102405.06
2018-11-14T08:45:44.529Z,102405.77
2018-11-14T08:48:13.244Z,102403.13
2018-11-14T08:50:41.940Z,102402.97
2018-11-14T08:53:11.096Z,102400.25
2018-11-14T08:55:39.795Z,102403.52
2018-11-14T08:58:09.848Z,102399.06
2018-11-14T09:00:38.508Z,102401.06
2018-11-14T09:03:08.581Z,102399.56
2018-11-14T09:05:37.317Z,102408.00
2018-11-14T09:08:06.065Z,102400.84
2018-11-14T09:10:34.781Z,102408.91
2018-11-14T09:13:03.596Z,102400.06
2018-11-14T09:15:32.245Z,102399.82
2018-11-14T09:18:01.242Z,102401.75
2018-11-14T09:20:29.909Z,102401.10
2018-11-14T09:22:58.662Z,102400.90
2018-11-14T09:25:30.080Z,102389.39
2018-11-14T09:27:59.819Z,102406.55
2018-11-14T09:30:28.575Z,102407.61
2018-11-14T09:32:57.314Z,102406.98
2018-11-14T09:35:26.812Z,102406.81
2018-11-14T09:37:56.619Z,102392.35
2018-11-14T09:40:26.638Z,102393.91
2018-11-14T09:42:55.371Z,102393.66
2018-11-14T09:45:25.344Z,102399.18
2018-11-14T09:47:54.060Z,102392.91
2018-11-14T09:50:24.043Z,102386.64
2018-11-14T09:52:55.192Z,102389.84
2018-11-14T09:55:23.990Z,102389.27
2018-11-14T09:57:52.712Z,102389.06
2018-11-14T10:00:24.724Z,102389.30
2018-11-14T10:03:10.140Z,102389.89
2018-11-14T10:05:38.939Z,102391.88
2018-11-14T10:08:07.552Z,102388.61
2018-11-14T10:10:36.275Z,102386.14
2018-11-14T10:13:05.548Z,102383.32
2018-11-14T10:15:34.524Z,102377.09
2018-11-14T10:18:03.208Z,102378.12
2018-11-14T10:20:31.915Z,102382.25
2018-11-14T10:23:00.637Z,102378.53
2018-11-14T10:25:29.346Z,102371.79
2018-11-14T10:27:58.068Z,102372.42
2018-11-14T10:30:27.858Z,102371.34
2018-11-14T10:32:56.717Z,102376.33
2018-11-14T10:35:25.412Z,102373.94
2018-11-14T10:37:54.127Z,102367.18
2018-11-14T10:40:26.920Z,102372.61
2018-11-14T10:42:55.724Z,102362.80
2018-11-14T10:45:25.400Z,102366.00
2018-11-14T10:47:54.142Z,102358.71
2018-11-14T10:50:25.328Z,102358.13
2018-11-14T10:52:54.040Z,102352.22
2018-11-14T10:55:23.045Z,102358.16
2018-11-14T10:57:52.351Z,102348.91
2018-11-14T11:00:29.264Z,102359.22
2018-11-14T11:03:03.967Z,102364.65
2018-11-14T11:07:43.807Z,102355.33
2018-11-14T11:10:17.940Z,102348.28
2018-11-14T11:12:51.950Z,102345.86
2018-11-14T11:15:27.844Z,102345.75
2018-11-14T11:18:05.788Z,102352.14
2018-11-14T11:20:34.502Z,102364.52
2018-11-14T11:23:03.220Z,102360.78
2018-11-14T11:25:31.925Z,102356.34
2018-11-14T11:28:00.640Z,102353.47
2018-11-14T11:30:29.356Z,102357.66
2018-11-14T11:32:58.040Z,102360.61
2018-11-14T11:35:26.948Z,102371.79
2018-11-14T11:37:55.696Z,102373.50
2018-11-14T11:40:24.377Z,102365.92
2018-11-14T11:42:53.084Z,102368.91
2018-11-14T11:45:21.793Z,102361.41
2018-11-14T11:47:50.479Z,102369.17
2018-11-14T11:50:19.210Z,102362.90
2018-11-14T11:52:48.302Z,102352.92
2018-11-14T11:55:17.004Z,102352.66
2018-11-14T11:57:45.692Z,102343.80
2018-11-14T12:00:14.671Z,102342.83
2018-11-14T12:02:43.780Z,102343.41
2018-11-14T12:05:13.598Z,102336.34
2018-11-14T12:07:42.891Z,102334.52
2018-11-14T12:10:13.153Z,102333.58
2018-11-14T12:12:42.517Z,102340.53
2018-11-14T12:15:11.941Z,102332.16
2018-11-14T12:17:41.173Z,102331.22
2018-11-14T12:20:11.032Z,102335.92
2018-11-14T12:22:40.436Z,102340.18
2018-11-14T12:25:10.796Z,102336.96
2018-11-14T12:27:39.558Z,102337.03
2018-11-14T12:30:10.939Z,102341.34
2018-11-14T12:32:39.747Z,102339.46
2018-11-14T12:35:09.352Z,102348.09
2018-11-14T12:37:38.040Z,102342.36
2018-11-14T12:40:07.595Z,102338.36
2018-11-14T12:42:36.591Z,102337.75
2018-11-14T12:45:06.254Z,102338.78
2018-11-14T12:47:34.928Z,102345.20
2018-11-14T12:50:04.964Z,102344.27
2018-11-14T12:52:33.742Z,102338.84
2018-11-14T12:55:02.417Z,102330.91
2018-11-14T12:57:31.508Z,102328.61
2018-11-14T13:00:00.479Z,102322.06
2018-11-14T13:02:29.105Z,102319.77
2018-11-14T13:04:57.839Z,102319.29
2018-11-14T13:07:26.564Z,102316.22
2018-11-14T13:09:55.496Z,102318.76
2018-11-14T13:12:24.208Z,102323.95
2018-11-14T13:14:53.076Z,102321.63
2018-11-14T13:17:21.945Z,102315.03
2018-11-14T13:19:50.788Z,102316.62
2018-11-14T13:22:19.588Z,102310.04
2018-11-14T13:24:48.323Z,102308.65
2018-11-14T13:27:17.040Z,102305.58
2018-11-14T13:29:45.731Z,102305.41
2018-11-14T13:32:14.444Z,102300.63
2018-11-14T13:34:43.154Z,102295.92
2018-11-14T13:37:11.872Z,102289.86
2018-11-14T13:39:40.672Z,102289.00
2018-11-14T13:42:09.369Z,102291.95
2018-11-14T13:44:38.078Z,102290.31
2018-11-14T13:47:06.799Z,102284.09
2018-11-14T13:49:35.771Z,102287.86
2018-11-14T13:52:05.016Z,102286.87
2018-11-14T13:54:33.716Z,102280.23
2018-11-14T13:57:02.588Z,102281.09
2018-11-14T13:59:31.305Z,102281.71
2018-11-14T14:02:00.331Z,102286.22
2018-11-14T14:04:29.855Z,102292.72
2018-11-14T14:06:58.562Z,102287.48
2018-11-14T14:09:27.357Z,102287.48
2018-11-14T14:11:55.963Z,102284.78
2018-11-14T14:14:24.661Z,102275.94
2018-11-14T14:16:53.372Z,102278.07
2018-11-14T14:19:22.070Z,102272.54
2018-11-14T14:21:50.788Z,102271.77
2018-11-14T14:24:19.492Z,102263.13
2018-11-14T14:26:48.366Z,102265.75
2018-11-14T14:29:17.056Z,102263.27
2018-11-14T14:31:46.016Z,102263.67
2018-11-14T14:34:14.717Z,102261.71
2018-11-14T14:36:43.420Z,102266.95
2018-11-14T14:39:13.142Z,102264.49
2018-11-14T14:41:42.002Z,102270.27
2018-11-14T14:44:24.140Z,102259.38
2018-11-14T14:46:52.845Z,102262.98
2018-11-14T14:49:21.635Z,102255.30
2018-11-14T14:51:50.311Z,102251.25
2018-11-14T14:54:18.996Z,102259.47
2018-11-14T14:56:47.705Z,102258.77
2018-11-14T14:59:16.436Z,102259.63
2018-11-14T15:01:45.127Z,102260.69
2018-11-14T15:04:13.848Z,102254.52
2018-11-14T15:06:42.528Z,102251.70
2018-11-14T15:09:11.712Z,102243.43
2018-11-14T15:11:40.528Z,102242.25
2018-11-14T15:14:09.228Z,102241.62
2018-11-14T15:16:38.224Z,102242.35
2018-11-14T15:19:07.256Z,102239.03
2018-11-14T15:24:22.916Z,102237.88
2018-11-14T15:26:51.837Z,102236.30
2018-11-14T15:29:20.553Z,102232.61
2018-11-14T15:31:49.251Z,102234.97
2018-11-14T15:34:17.968Z,102237.37
2018-11-14T15:36:47.108Z,102227.19
2018-11-14T15:39:15.800Z,102226.67
2018-11-14T15:41:44.508Z,102222.90
2018-11-14T15:44:13.205Z,102231.38
2018-11-14T15:46:41.896Z,102214.91
2018-11-14T15:49:10.908Z,102204.69
2018-11-14T15:51:39.614Z,102210.09
2018-11-14T15:54:08.340Z,102212.90
2018-11-14T15:56:37.032Z,102210.48
2018-11-14T15:59:06.106Z,102223.42
2018-11-14T16:01:34.823Z,102213.61
2018-11-14T16:04:03.509Z,102211.84
2018-11-14T16:06:32.234Z,102213.92
2018-11-14T16:09:00.938Z,102210.23
2018-11-14T16:11:29.708Z,102211.00
2018-11-14T16:13:58.447Z,102212.55
2018-11-14T16:16:27.456Z,102205.45
2018-11-14T16:18:56.537Z,102213.52
2018-11-14T16:21:25.263Z,102211.16
2018-11-14T16:23:54.096Z,102209.69
2018-11-14T16:26:22.824Z,102215.14
2018-11-14T16:28:52.553Z,102218.95
2018-11-14T16:31:21.257Z,102226.70
2018-11-14T16:33:49.959Z,102222.23
2018-11-14T16:36:35.060Z,102223.42
2018-11-14T16:39:08.324Z,102225.41
2018-11-14T16:41:37.116Z,102224.45
2018-11-14T16:44:06.432Z,102227.28
2018-11-14T16:46:35.131Z,102231.00
2018-11-14T16:49:04.088Z,102235.58
2018-11-14T16:51:32.927Z,102235.80
2018-11-14T16:54:01.663Z,102227.38
2018-11-14T16:56:30.620Z,102234.11
2018-11-14T16:58:59.342Z,102229.97
2018-11-14T17:01:28.040Z,102228.41
2018-11-14T17:03:56.973Z,102222.58
2018-11-14T17:06:25.686Z,102222.28
2018-11-14T17:08:54.388Z,102219.50
2018-11-14T17:11:23.092Z,102220.45
2018-11-14T17:13:51.796Z,102227.11
2018-11-14T17:16:20.492Z,102224.27
2018-11-14T17:18:49.392Z,102228.32
2018-11-14T17:21:18.080Z,102225.03
2018-11-14T17:23:47.088Z,102224.73
2018-11-14T17:26:15.897Z,102227.90
2018-11-14T17:28:44.584Z,102221.27
2018-11-14T17:31:13.373Z,102230.24
2018-11-14T17:33:56.704Z,102226.92
2018-11-14T17:36:25.560Z,102225.38
2018-11-14T17:38:54.320Z,102229.48
2018-11-14T17:41:23.255Z,102232.23
2018-11-14T17:43:51.952Z,102233.28
2018-11-14T17:46:20.656Z,102230.82
2018-11-14T17:48:49.383Z,102226.28
2018-11-14T17:51:18.264Z,102229.91
2018-11-14T17:53:46.972Z,102222.66
2018-11-14T17:56:15.978Z,102228.85
2018-11-14T17:58:44.940Z,102231.20
2018-11-14T18:01:14.035Z,102229.67
2018-11-14T18:03:42.937Z,102225.93
2018-11-14T18:06:11.964Z,102230.41
2018-11-14T18:08:40.908Z,102227.44
2018-11-14T18:11:09.900Z,102237.45
2018-11-14T18:13:38.838Z,102234.05
2018-11-14T18:16:07.662Z,102235.03
2018-11-14T18:18:36.583Z,102225.19
2018-11-14T18:21:05.589Z,102234.77
2018-11-14T18:23:34.550Z,102227.10
2018-11-14T18:26:03.272Z,102232.90
2018-11-14T18:28:31.976Z,102233.88
2018-11-14T18:31:00.928Z,102234.39
2018-11-14T18:33:29.648Z,102237.48
2018-11-14T18:35:58.356Z,102240.58
2018-11-14T18:38:27.073Z,102234.23
2018-11-14T18:40:55.977Z,102232.62
2018-11-14T18:43:24.964Z,102237.89
2018-11-14T18:45:53.748Z,102235.39
2018-11-14T18:48:22.394Z,102235.51
2018-11-14T18:50:51.112Z,102229.94
2018-11-14T18:53:19.812Z,102229.19
2018-11-14T18:55:48.692Z,102230.11
2018-11-14T18:58:17.404Z,102231.95
2018-11-14T19:00:46.132Z,102232.48
2018-11-14T19:03:14.852Z,102228.66
2018-11-14T19:05:43.756Z,102229.14
2018-11-14T19:08:12.496Z,102226.66
2018-11-14T19:10:41.431Z,102228.91
2018-11-14T19:13:10.156Z,102224.30
2018-11-14T19:15:38.880Z,102225.22
2018-11-14T19:18:07.596Z,102217.53
2018-11-14T19:20:36.718Z,102226.19
2018-11-14T19:23:06.132Z,102229.76
2018-11-14T19:25:37.124Z,102221.16
2018-11-14T19:28:06.032Z,102219.95
2018-11-14T19:30:36.247Z,102229.53
2018-11-14T19:33:05.492Z,102226.95
2018-11-14T19:35:34.196Z,102226.18
2018-11-14T19:38:03.560Z,102219.36
2018-11-14T19:40:33.551Z,102222.86
2018-11-14T19:43:03.270Z,102218.64
2018-11-14T19:45:34.448Z,102211.41
2018-11-14T19:48:03.377Z,102214.48
2018-11-14T19:50:32.474Z,102212.86
2018-11-14T19:53:01.096Z,102216.84
2018-11-14T19:55:30.233Z,102215.60
2018-11-14T19:58:00.059Z,102212.23
2018-11-14T20:00:32.252Z,102208.45
2018-11-14T20:03:01.662Z,102212.00
2018-11-14T20:05:30.375Z,102215.94
2018-11-14T20:07:59.073Z,102209.08
2018-11-14T20:10:29.159Z,102213.06
2018-11-14T20:12:57.896Z,102210.09
2018-11-14T20:15:28.969Z,102205.42
2018-11-14T20:17:57.683Z,102212.78
2018-11-14T20:20:28.297Z,102211.14
2018-11-14T20:22:57.025Z,102207.73
2018-11-14T20:25:25.944Z,102203.45
2018-11-14T20:27:54.943Z,102200.48
2018-11-14T20:30:25.145Z,102203.59
2018-11-14T20:32:54.748Z,102205.38
2018-11-14T20:38:05.568Z,102198.27
2018-11-14T20:40:36.728Z,102204.50
2018-11-14T20:43:06.312Z,102204.16
2018-11-14T20:45:36.173Z,102199.02
2018-11-14T20:48:05.680Z,102199.11
2018-11-14T20:50:34.450Z,102202.66
2018-11-14T20:53:04.286Z,102197.08
2018-11-14T20:55:34.005Z,102195.05
2018-11-14T20:58:03.006Z,102195.97
2018-11-14T21:00:33.016Z,102198.17
2018-11-14T21:03:01.861Z,102195.19
2018-11-14T21:05:31.063Z,102196.96
2018-11-14T21:08:00.126Z,102196.53
2018-11-14T21:10:31.751Z,102193.12
2018-11-14T21:13:01.370Z,102195.31
2018-11-14T21:15:31.866Z,102192.73
2018-11-14T21:18:01.494Z,102190.22
2018-11-14T21:20:30.562Z,102194.16
2018-11-14T21:22:59.630Z,102188.58
2018-11-14T21:25:28.502Z,102188.16
2018-11-14T21:27:57.742Z,102185.56
2018-11-14T21:30:27.768Z,102179.56
2018-11-14T21:32:56.730Z,102173.98
2018-11-14T21:35:28.195Z,102175.32
2018-11-14T21:37:58.202Z,102176.63
2018-11-14T21:40:28.166Z,102171.52
2018-11-14T21:42:56.942Z,102172.43
2018-11-14T21:45:26.791Z,102173.77
2018-11-14T21:48:00.925Z,102175.53
2018-11-14T21:50:30.379Z,102177.27
2018-11-14T21:52:59.462Z,102176.01
2018-11-14T21:55:28.175Z,102181.27
2018-11-14T21:57:56.921Z,102177.55
2018-11-14T22:00:33.169Z,102175.94
2018-11-14T22:03:02.206Z,102176.06
2018-11-14T22:05:31.001Z,102171.40
2018-11-14T22:07:59.746Z,102172.34
2018-11-14T22:10:28.757Z,102159.87
2018-11-14T22:12:57.510Z,102168.57
2018-11-14T22:15:27.287Z,102173.78
2018-11-14T22:17:56.072Z,102179.86
2018-11-14T22:20:25.925Z,102173.86
2018-11-14T22:22:55.326Z,102177.27
2018-11-14T22:25:25.030Z,102172.97
2018-11-14T22:27:54.230Z,102170.80
2018-11-14T22:30:25.154Z,102175.19
2018-11-14T22:32:53.898Z,102178.25
2018-11-14T22:35:23.956Z,102177.03
2018-11-14T22:37:52.726Z,102169.73
2018-11-14T22:40:22.923Z,102168.95
2018-11-14T22:42:51.668Z,102162.95
2018-11-14T22:45:22.696Z,102158.25
2018-11-14T22:47:51.447Z,102159.14
2018-11-14T22:50:22.130Z,102160.87
2018-11-14T22:52:51.089Z,102163.45
2018-11-14T22:55:20.937Z,102162.63
2018-11-14T22:57:50.493Z,102166.98
2018-11-14T23:00:26.617Z,102166.98
2018-11-14T23:02:56.558Z,102172.62
2018-11-14T23:05:25.365Z,102175.64
2018-11-14T23:07:55.713Z,102176.89
2018-11-14T23:10:25.198Z,102174.74
2018-11-14T23:12:53.998Z,102174.74
2018-11-14T23:15:23.296Z,102179.48
2018-11-14T23:17:52.283Z,102179.45
2018-11-14T23:20:21.082Z,102182.93
2018-11-14T23:22:50.495Z,102176.46
2018-11-14T23:25:19.766Z,102178.63
2018-11-14T23:27:50.682Z,102176.46
2018-11-14T23:30:20.521Z,102170.00
2018-11-14T23:32:50.752Z,102171.76
2018-11-14T23:35:21.684Z,102176.93
2018-11-14T23:37:52.824Z,102172.22
2018-11-14T23:40:21.717Z,102167.95
2018-11-14T23:42:50.793Z,102171.43
2018-11-14T23:45:20.448Z,102177.07
2018-11-14T23:47:49.697Z,102173.66
2018-11-14T23:50:20.562Z,102172.83
2018-11-14T23:52:50.359Z,102174.59
2018-11-14T23:55:19.654Z,102168.98
2018-11-14T23:57:48.447Z,102168.59
